Time;durP1;ratioP1;P1;durP2;ratioP2;P2;SDS_P1;SDS_P2;PMS_P1;PMS_P2;Temp;Humidity;BMP_temperature;BMP_pressure;BME280_temperature;BME280_humidity;BME280_pressure;Samples;Min_cycle;Max_cycle;Signal;HPM_P1;HPM_P2
2023/04/11 00:00:51;;;;;;;26.93;6.77;;;;;;;-150.27;100.00;61272.81;5036598;29;20046;-72
2023/04/11 00:03:23;;;;;;;22.33;6.30;;;;;;;-150.27;100.00;61272.81;5035563;29;20121;-72
2023/04/11 00:05:55;;;;;;;24.17;5.83;;;;;;;-150.27;100.00;61272.81;5038470;29;20026;-71
2023/04/11 00:08:26;;;;;;;26.27;6.67;;;;;;;-150.27;100.00;61272.81;5039489;29;20032;-72
2023/04/11 00:10:57;;;;;;;22.00;6.07;;;;;;;-150.27;100.00;61272.81;5039362;29;20045;-72
2023/04/11 00:13:29;;;;;;;32.47;7.43;;;;;;;-150.27;100.00;61272.81;5040357;29;20049;-72
2023/04/11 00:16:02;;;;;;;25.77;6.63;;;;;;;-150.27;100.00;61272.81;5038472;29;20086;-72
2023/04/11 00:18:35;;;;;;;21.53;6.77;;;;;;;-150.27;100.00;61272.81;5025491;29;20033;-72
2023/04/11 00:21:07;;;;;;;29.20;7.50;;;;;;;-150.27;100.00;61272.81;5039613;29;20033;-72
2023/04/11 00:23:38;;;;;;;23.67;6.10;;;;;;;-150.27;100.00;61272.81;5040263;29;20505;-72
2023/04/11 00:26:09;;;;;;;31.00;8.73;;;;;;;-150.27;100.00;61272.81;5039182;29;20017;-72
2023/04/11 00:28:41;;;;;;;29.83;7.93;;;;;;;-150.27;100.00;61272.81;5040140;29;20054;-72
2023/04/11 00:31:13;;;;;;;28.33;7.27;;;;;;;-150.27;100.00;61272.81;5039476;29;20474;-72
2023/04/11 00:33:44;;;;;;;22.20;6.20;;;;;;;-150.27;100.00;61272.81;5030416;29;20030;-72
2023/04/11 00:36:15;;;;;;;28.80;7.93;;;;;;;-150.27;100.00;61272.81;5038309;29;20859;-72
2023/04/11 00:38:47;;;;;;;38.33;10.17;;;;;;;-150.27;100.00;61272.81;5027838;29;20034;-72
2023/04/11 00:41:18;;;;;;;25.07;6.33;;;;;;;-150.27;100.00;61272.81;5026306;29;20468;-72
2023/04/11 00:43:49;;;;;;;26.03;7.63;;;;;;;-150.27;100.00;61272.81;5040133;29;20464;-72
2023/04/11 00:46:20;;;;;;;27.00;6.23;;;;;;;-150.27;100.00;61272.81;5022736;29;20486;-72
2023/04/11 00:48:52;;;;;;;28.90;6.60;;;;;;;-150.27;100.00;61272.81;5038620;29;20034;-72
2023/04/11 00:51:24;;;;;;;30.33;8.13;;;;;;;-150.27;100.00;61272.81;5037259;29;20496;-72
2023/04/11 00:53:56;;;;;;;31.37;8.43;;;;;;;-150.27;100.00;61272.81;5039924;29;20041;-72
2023/04/11 00:56:28;;;;;;;35.20;8.47;;;;;;;-150.27;100.00;61272.81;5034685;29;20091;-73
2023/04/11 00:58:59;;;;;;;29.80;8.13;;;;;;;-150.27;100.00;61272.81;5022471;29;20033;-73
2023/04/11 01:01:34;;;;;;;37.00;8.47;;;;;;;-150.27;100.00;61272.81;5038095;29;20045;-73
2023/04/11 01:06:58;;;;;;;32.50;7.33;;;;;;;-150.27;100.00;61272.81;5072186;29;20566;-72
2023/04/11 01:09:32;;;;;;;31.00;8.37;;;;;;;-150.27;100.00;61272.81;5078368;29;20044;-72
2023/04/11 01:12:04;;;;;;;;;;;;;;;-150.27;100.00;61272.81;5068543;29;20064;-72
2023/04/11 01:14:37;;;;;;;25.40;6.77;;;;;;;-150.27;100.00;61272.81;5059448;29;19912;-71
2023/04/11 01:17:11;;;;;;;26.20;7.60;;;;;;;-150.27;100.00;61272.81;5068446;29;20496;-72
2023/04/11 01:19:42;;;;;;;27.02;7.68;;;;;;;-150.27;100.00;61272.81;5059338;29;20073;-72
2023/04/11 01:22:16;;;;;;;24.70;6.73;;;;;;;-150.27;100.00;61272.81;5070787;29;20026;-72
2023/04/11 01:24:48;;;;;;;27.75;6.95;;;;;;;-150.27;100.00;61272.81;5048903;29;20033;-72
2023/04/11 01:27:19;;;;;;;26.47;8.03;;;;;;;-150.27;100.00;61272.81;5075826;29;20056;-72
2023/04/11 01:29:51;;;;;;;27.87;7.83;;;;;;;-150.27;100.00;61272.81;5068318;29;20088;-72
2023/04/11 01:32:22;;;;;;;27.77;6.17;;;;;;;-150.27;100.00;61272.81;5076705;29;20033;-72
2023/04/11 01:34:56;;;;;;;25.43;7.97;;;;;;;-150.27;100.00;61272.81;5077122;29;20041;-72
2023/04/11 01:37:27;;;;;;;35.70;9.00;;;;;;;-150.27;100.00;61272.81;5077296;29;20132;-72
2023/04/11 01:40:00;;;;;;;29.17;7.97;;;;;;;-150.27;100.00;61272.81;5077600;29;20112;-73
2023/04/11 01:42:32;;;;;;;31.47;7.07;;;;;;;-150.27;100.00;61272.81;5076885;29;20041;-72
2023/04/11 01:45:05;;;;;;;32.77;9.00;;;;;;;-150.27;100.00;61272.81;5075031;29;20075;-72
2023/04/11 01:47:37;;;;;;;41.33;9.37;;;;;;;-150.27;100.00;61272.81;5061309;29;20021;-72
2023/04/11 01:50:10;;;;;;;29.77;7.23;;;;;;;-150.27;100.00;61272.81;5066963;29;20292;-72
2023/04/11 01:52:42;;;;;;;29.10;6.90;;;;;;;-150.27;100.00;61272.81;5072063;29;20033;-72
2023/04/11 01:55:13;;;;;;;38.10;9.27;;;;;;;-150.27;100.00;61272.81;5074206;29;20028;-72
2023/04/11 01:57:45;;;;;;;29.53;6.83;;;;;;;-150.27;100.00;61272.81;5075097;29;20033;-72
2023/04/11 02:00:16;;;;;;;26.67;8.00;;;;;;;-150.27;100.00;61272.81;5068501;29;20108;-72
2023/04/11 02:02:47;;;;;;;29.40;6.80;;;;;;;-150.27;100.00;61272.81;5077006;29;20049;-72
2023/04/11 02:05:19;;;;;;;37.13;8.37;;;;;;;-150.27;100.00;61272.81;5070858;29;20052;-72
2023/04/11 02:07:50;;;;;;;34.83;9.10;;;;;;;-150.27;100.00;61272.81;5060910;29;20115;-72
2023/04/11 02:10:22;;;;;;;28.63;7.43;;;;;;;-150.27;100.00;61272.81;5059242;29;20040;-72
2023/04/11 02:12:53;;;;;;;30.93;9.07;;;;;;;-150.27;100.00;61272.81;5070379;29;20033;-72
2023/04/11 02:15:24;;;;;;;33.93;8.67;;;;;;;-150.27;100.00;61272.81;5076420;29;20108;-72
2023/04/11 02:17:56;;;;;;;36.93;8.97;;;;;;;-150.27;100.00;61272.81;5071228;29;20033;-72
2023/04/11 02:20:27;;;;;;;36.80;8.87;;;;;;;-150.27;100.00;61272.81;5057654;29;20025;-72
2023/04/11 02:23:03;;;;;;;24.67;7.70;;;;;;;-150.27;100.00;61272.81;5047014;29;20488;-72
2023/04/11 02:25:34;;;;;;;27.27;6.93;;;;;;;-150.27;100.00;61272.81;5069864;29;20030;-72
2023/04/11 02:28:05;;;;;;;27.03;6.90;;;;;;;-150.27;100.00;61272.81;5058490;29;20576;-72
2023/04/11 02:30:37;;;;;;;27.20;7.67;;;;;;;-150.27;100.00;61272.81;5076374;29;20093;-72
2023/04/11 02:33:08;;;;;;;25.43;7.83;;;;;;;-150.27;100.00;61272.81;5075473;29;20067;-72
2023/04/11 02:35:39;;;;;;;28.33;7.87;;;;;;;-150.27;100.00;61272.81;5076524;29;20049;-72
2023/04/11 02:38:11;;;;;;;28.37;8.03;;;;;;;-150.27;100.00;61272.81;5076133;29;20626;-72
2023/04/11 02:40:42;;;;;;;34.70;8.27;;;;;;;-150.27;100.00;61272.81;5055159;29;20054;-72
2023/04/11 02:43:15;;;;;;;26.63;7.10;;;;;;;-150.27;100.00;61272.81;5075717;29;20043;-72
2023/04/11 02:45:46;;;;;;;31.17;6.77;;;;;;;-150.27;100.00;61272.81;5064512;29;20033;-72
2023/04/11 02:48:17;;;;;;;27.77;7.60;;;;;;;-150.27;100.00;61272.81;5043961;29;20439;-71
2023/04/11 02:50:48;;;;;;;28.93;7.80;;;;;;;-150.27;100.00;61272.81;5072335;29;20060;-72
2023/04/11 02:53:20;;;;;;;31.87;7.90;;;;;;;-150.27;100.00;61272.81;5073568;29;20068;-72
2023/04/11 02:55:51;;;;;;;23.27;7.67;;;;;;;-150.27;100.00;61272.81;5062569;29;20041;-72
2023/04/11 02:58:24;;;;;;;28.00;7.50;;;;;;;-150.27;100.00;61272.81;5047805;29;20049;-72
2023/04/11 03:00:56;;;;;;;24.83;7.07;;;;;;;-150.27;100.00;61272.81;5076004;29;20093;-72
2023/04/11 03:03:27;;;;;;;29.33;7.40;;;;;;;-150.27;100.00;61272.81;5069661;29;20040;-72
2023/04/11 03:05:58;;;;;;;21.87;5.90;;;;;;;-150.27;100.00;61272.81;5065170;29;20136;-72
2023/04/11 03:08:30;;;;;;;28.30;6.97;;;;;;;-150.27;100.00;61272.81;5063049;29;20077;-72
2023/04/11 03:11:02;;;;;;;23.17;5.37;;;;;;;-150.27;100.00;61272.81;5054964;29;20488;-71
2023/04/11 03:13:35;;;;;;;23.83;6.63;;;;;;;-150.27;100.00;61272.81;5074850;29;20083;-72
2023/04/11 03:16:07;;;;;;;20.70;5.80;;;;;;;-150.27;100.00;61272.81;5057826;29;20045;-72
2023/04/11 03:18:38;;;;;;;20.53;5.20;;;;;;;-150.27;100.00;61272.81;5056930;29;20045;-72
2023/04/11 03:21:10;;;;;;;17.07;4.50;;;;;;;-150.27;100.00;61272.81;5063624;29;20040;-72
2023/04/11 03:23:42;;;;;;;21.83;5.20;;;;;;;-150.27;100.00;61272.81;5062451;29;20030;-72
2023/04/11 03:26:13;;;;;;;17.40;4.90;;;;;;;-150.27;100.00;61272.81;5068207;29;20039;-72
2023/04/11 03:28:44;;;;;;;20.10;4.13;;;;;;;-150.27;100.00;61272.81;5057307;29;20461;-72
2023/04/11 03:31:16;;;;;;;17.67;4.70;;;;;;;-150.27;100.00;61272.81;5069945;29;20457;-72
2023/04/11 03:33:47;;;;;;;18.27;4.53;;;;;;;-150.27;100.00;61272.81;5069711;29;20049;-73
2023/04/11 03:36:21;;;;;;;23.60;4.63;;;;;;;-150.27;100.00;61272.81;5059688;29;20038;-73
2023/04/11 03:38:52;;;;;;;16.43;4.43;;;;;;;-150.27;100.00;61272.81;5076141;29;20045;-72
2023/04/11 03:41:24;;;;;;;18.20;4.93;;;;;;;-150.27;100.00;61272.81;5056955;29;20033;-73
2023/04/11 03:43:55;;;;;;;23.47;4.23;;;;;;;-150.27;100.00;61272.81;5076240;29;20040;-73
2023/04/11 03:46:26;;;;;;;21.83;5.10;;;;;;;-150.27;100.00;61272.81;5075272;29;20112;-73
2023/04/11 03:48:57;;;;;;;19.80;4.30;;;;;;;-150.27;100.00;61272.81;5074732;29;20049;-73
2023/04/11 03:51:30;;;;;;;22.30;4.47;;;;;;;-150.27;100.00;61272.81;5062263;29;20044;-73
2023/04/11 03:54:01;;;;;;;20.60;3.90;;;;;;;-150.27;100.00;61272.81;5067607;29;20037;-73
2023/04/11 03:56:32;;;;;;;21.03;5.20;;;;;;;-150.27;100.00;61272.81;5051882;29;20041;-73
2023/04/11 03:59:04;;;;;;;21.53;4.07;;;;;;;-150.27;100.00;61272.81;5063363;29;20025;-73
2023/04/11 04:01:36;;;;;;;19.33;4.47;;;;;;;-150.27;100.00;61272.81;5072417;29;20532;-73
2023/04/11 04:04:08;;;;;;;21.23;4.90;;;;;;;-150.27;100.00;61272.81;5075231;29;20049;-73
2023/04/11 04:06:39;;;;;;;29.50;6.23;;;;;;;-150.27;100.00;61272.81;5064154;29;20093;-73
2023/04/11 04:09:10;;;;;;;16.87;5.07;;;;;;;-150.27;100.00;61272.81;5058493;29;20036;-73
2023/04/11 04:11:42;;;;;;;17.60;4.60;;;;;;;-150.27;100.00;61272.81;5049329;29;20612;-73
2023/04/11 04:14:13;;;;;;;22.20;5.00;;;;;;;-150.27;100.00;61272.81;5055318;29;20433;-73
2023/04/11 04:16:44;;;;;;;17.77;4.80;;;;;;;-150.27;100.00;61272.81;5060428;29;20083;-73
2023/04/11 04:19:16;;;;;;;19.93;4.53;;;;;;;-150.27;100.00;61272.81;5069352;29;20048;-73
2023/04/11 04:21:48;;;;;;;20.67;5.43;;;;;;;-150.27;100.00;61272.81;5075466;29;20044;-72
2023/04/11 04:24:20;;;;;;;20.70;4.83;;;;;;;-150.27;100.00;61272.81;5054118;29;20021;-73
2023/04/11 04:26:52;;;;;;;28.30;6.80;;;;;;;-150.27;100.00;61272.81;5066153;29;20036;-73
2023/04/11 04:29:32;;;;;;;24.23;5.80;;;;;;;-150.27;100.00;61272.81;5073759;29;20062;-73
2023/04/11 04:32:10;;;;;;;27.97;6.73;;;;;;;-150.27;100.00;61272.81;5071706;29;20033;-73
2023/04/11 04:34:45;;;;;;;17.67;5.83;;;;;;;-150.27;100.00;61272.81;5071690;29;20024;-72
2023/04/11 04:37:23;;;;;;;25.07;7.43;;;;;;;-150.27;100.00;61272.81;5075112;29;20465;-73
2023/04/11 04:40:00;;;;;;;25.23;6.00;;;;;;;-150.27;100.00;61272.81;5070243;29;20025;-72
2023/04/11 04:42:35;;;;;;;23.43;5.93;;;;;;;-150.27;100.00;61272.81;5070721;29;20084;-73
2023/04/11 04:45:08;;;;;;;30.57;9.00;;;;;;;-150.27;100.00;61272.81;5070162;29;20026;-73
2023/04/11 04:47:39;;;;;;;21.97;5.67;;;;;;;-150.27;100.00;61272.81;5070450;29;20033;-72
2023/04/11 04:50:10;;;;;;;22.40;6.03;;;;;;;-150.27;100.00;61272.81;5058440;29;20123;-73
2023/04/11 04:52:42;;;;;;;22.13;5.53;;;;;;;-150.27;100.00;61272.81;5060856;29;20041;-73
2023/04/11 04:55:13;;;;;;;23.97;6.30;;;;;;;-150.27;100.00;61272.81;5073375;29;20029;-73
2023/04/11 04:57:44;;;;;;;24.80;5.97;;;;;;;-150.27;100.00;61272.81;5069245;29;20500;-72
2023/04/11 05:00:16;;;;;;;17.93;4.13;;;;;;;-150.27;100.00;61272.81;5077532;29;20065;-73
2023/04/11 05:02:47;;;;;;;19.03;5.30;;;;;;;-150.27;100.00;61272.81;5079299;29;20029;-72
2023/04/11 05:05:19;;;;;;;21.33;5.67;;;;;;;-150.27;100.00;61272.81;5078657;29;20061;-72
2023/04/11 05:07:50;;;;;;;18.60;4.87;;;;;;;-150.27;100.00;61272.81;5078773;29;20032;-72
2023/04/11 05:10:21;;;;;;;20.20;5.37;;;;;;;-150.27;100.00;61272.81;5077502;29;20081;-72
2023/04/11 05:12:54;;;;;;;21.90;4.87;;;;;;;-150.27;100.00;61272.81;5063304;29;20093;-73
2023/04/11 05:15:25;;;;;;;22.23;5.57;;;;;;;-150.27;100.00;61272.81;5077593;29;20029;-73
2023/04/11 05:17:56;;;;;;;20.57;4.50;;;;;;;-150.27;100.00;61272.81;5076003;29;20484;-73
2023/04/11 05:20:28;;;;;;;18.93;4.23;;;;;;;-150.27;100.00;61272.81;5075075;29;20029;-73
2023/04/11 05:22:59;;;;;;;17.23;4.30;;;;;;;-150.27;100.00;61272.81;5056414;29;20036;-73
2023/04/11 05:25:31;;;;;;;24.43;4.73;;;;;;;-150.27;100.00;61272.81;5070707;29;20408;-73
2023/04/11 05:28:02;;;;;;;21.90;4.07;;;;;;;-150.27;100.00;61272.81;5052582;29;20342;-72
2023/04/11 05:30:33;;;;;;;21.77;4.53;;;;;;;-150.27;100.00;61272.81;5075343;29;20025;-73
2023/04/11 05:33:05;;;;;;;17.70;4.17;;;;;;;-150.27;100.00;61272.81;5073870;29;20029;-73
2023/04/11 05:35:36;;;;;;;20.90;4.87;;;;;;;-150.27;100.00;61272.81;5075233;29;20072;-73
2023/04/11 05:38:08;;;;;;;19.43;3.60;;;;;;;-150.27;100.00;61272.81;5075718;29;20021;-73
2023/04/11 05:40:39;;;;;;;19.87;4.43;;;;;;;-150.27;100.00;61272.81;5070817;29;20025;-73
2023/04/11 05:43:13;;;;;;;16.87;2.73;;;;;;;-150.27;100.00;61272.81;5077152;29;20065;-73
2023/04/11 05:45:47;;;;;;;17.15;3.83;;;;;;;-150.27;100.00;61272.81;5073038;29;20025;-72
2023/04/11 05:48:19;;;;;;;21.58;4.35;;;;;;;-150.27;100.00;61272.81;5074509;29;20148;-72
2023/04/11 05:50:50;;;;;;;19.07;3.67;;;;;;;-150.27;100.00;61272.81;5075480;29;20112;-73
2023/04/11 05:53:21;;;;;;;18.70;3.40;;;;;;;-150.27;100.00;61272.81;5073556;29;20056;-71
2023/04/11 05:55:53;;;;;;;20.83;4.13;;;;;;;-150.27;100.00;61272.81;5075717;29;20025;-73
2023/04/11 05:58:24;;;;;;;16.33;3.23;;;;;;;-150.27;100.00;61272.81;5063072;29;20036;-71
2023/04/11 06:00:58;;;;;;;19.63;3.70;;;;;;;-150.27;100.00;61272.81;5075783;29;20093;-72
2023/04/11 06:03:29;;;;;;;19.23;5.38;;;;;;;-150.27;100.00;61272.81;5073832;29;20084;-73
2023/04/11 06:06:01;;;;;;;19.27;3.70;;;;;;;-150.27;100.00;61272.81;5069575;29;20041;-72
2023/04/11 06:08:33;;;;;;;18.33;3.70;;;;;;;-150.27;100.00;61272.81;5075606;29;20037;-72
2023/04/11 06:11:04;;;;;;;14.50;4.60;;;;;;;-150.27;100.00;61272.81;5072261;29;20043;-71
2023/04/11 06:13:35;;;;;;;26.90;4.77;;;;;;;-150.27;100.00;61272.81;5076945;29;20112;-71
2023/04/11 06:16:07;;;;;;;16.87;3.47;;;;;;;-150.27;100.00;61272.81;5071374;29;20025;-71
2023/04/11 06:18:38;;;;;;;13.50;3.90;;;;;;;-150.27;100.00;61272.81;5055342;29;20040;-71
2023/04/11 06:21:09;;;;;;;22.83;4.43;;;;;;;-150.27;100.00;61272.81;5073258;29;21934;-71
2023/04/11 06:23:41;;;;;;;17.80;4.57;;;;;;;-150.27;100.00;61272.81;5078902;29;20029;-71
2023/04/11 06:26:12;;;;;;;23.00;5.20;;;;;;;-150.27;100.00;61272.81;5074001;29;20070;-73
2023/04/11 06:28:43;;;;;;;19.77;4.17;;;;;;;-150.27;100.00;61272.81;5069120;29;20120;-72
2023/04/11 06:31:15;;;;;;;18.80;5.17;;;;;;;-150.27;100.00;61272.81;5075099;29;20021;-72
2023/04/11 06:33:46;;;;;;;21.37;5.73;;;;;;;-150.27;100.00;61272.81;5055005;29;20040;-73
2023/04/11 06:36:17;;;;;;;24.97;4.93;;;;;;;-150.27;100.00;61272.81;5074920;29;20045;-72
2023/04/11 06:38:49;;;;;;;20.97;5.97;;;;;;;-150.27;100.00;61272.81;5075240;29;20033;-72
2023/04/11 06:41:20;;;;;;;20.77;5.30;;;;;;;-150.27;100.00;61272.81;5073233;29;20044;-73
2023/04/11 06:43:51;;;;;;;20.27;4.70;;;;;;;-150.27;100.00;61272.81;5069744;29;20040;-72
2023/04/11 06:46:23;;;;;;;13.03;4.00;;;;;;;-150.27;100.00;61272.81;5075272;29;20057;-72
2023/04/11 06:48:54;;;;;;;15.93;4.40;;;;;;;-150.27;100.00;61272.81;5064067;29;20389;-72
2023/04/11 06:51:26;;;;;;;20.40;5.30;;;;;;;-150.27;100.00;61272.81;5073804;29;20058;-72
2023/04/11 06:53:57;;;;;;;18.13;4.50;;;;;;;-150.27;100.00;61272.81;5074327;29;20041;-72
2023/04/11 06:56:29;;;;;;;16.47;3.37;;;;;;;-150.27;100.00;61272.81;5073709;29;20029;-73
2023/04/11 06:59:00;;;;;;;21.93;4.57;;;;;;;-150.27;100.00;61272.81;5074753;29;20025;-76
2023/04/11 07:01:36;;;;;;;16.80;4.27;;;;;;;-150.27;100.00;61272.81;5074209;29;20124;-72
2023/04/11 07:04:07;;;;;;;21.80;5.23;;;;;;;-150.27;100.00;61272.81;5075701;29;20033;-73
2023/04/11 07:06:39;;;;;;;19.10;5.43;;;;;;;-150.27;100.00;61272.81;5075944;29;20100;-73
2023/04/11 07:09:11;;;;;;;17.23;5.40;;;;;;;-150.27;100.00;61272.81;5058699;29;20053;-74
2023/04/11 07:11:43;;;;;;;17.53;5.10;;;;;;;-150.27;100.00;61272.81;5059078;29;20053;-73
2023/04/11 07:14:15;;;;;;;17.47;5.57;;;;;;;-150.27;100.00;61272.81;5068239;29;20037;-75
2023/04/11 07:16:46;;;;;;;19.57;6.27;;;;;;;-150.27;100.00;61272.81;5060056;29;20049;-72
2023/04/11 07:19:17;;;;;;;25.37;6.43;;;;;;;-150.27;100.00;61272.81;5071687;29;20037;-73
2023/04/11 07:21:49;;;;;;;25.90;5.67;;;;;;;-150.27;100.00;61272.81;5064730;29;20095;-73
2023/04/11 07:24:21;;;;;;;24.37;6.37;;;;;;;-150.27;100.00;61272.81;5074351;29;20505;-80
2023/04/11 07:26:53;;;;;;;21.37;6.50;;;;;;;-150.27;100.00;61272.81;5064210;29;20108;-74
2023/04/11 07:29:24;;;;;;;19.73;5.83;;;;;;;-150.27;100.00;61272.81;5075321;29;20503;-73
2023/04/11 07:31:56;;;;;;;22.43;7.47;;;;;;;-150.27;100.00;61272.81;5054456;29;20041;-73
2023/04/11 07:34:27;;;;;;;21.13;5.80;;;;;;;-150.27;100.00;61272.81;5074493;29;20528;-73
2023/04/11 07:36:59;;;;;;;18.57;6.10;;;;;;;-150.27;100.00;61272.81;5077752;29;20035;-73
2023/04/11 07:39:32;;;;;;;21.13;5.20;;;;;;;-150.27;100.00;61272.81;5076305;29;20041;-73
2023/04/11 07:42:03;;;;;;;13.40;4.77;;;;;;;-150.27;100.00;61272.81;5075076;29;20071;-73
2023/04/11 07:44:34;;;;;;;18.20;5.13;;;;;;;-150.27;100.00;61272.81;5075480;29;20049;-73
2023/04/11 07:47:06;;;;;;;16.37;4.80;;;;;;;-150.27;100.00;61272.81;5068940;29;20036;-73
2023/04/11 07:49:37;;;;;;;19.20;4.80;;;;;;;-150.27;100.00;61272.81;5073365;29;20080;-73
2023/04/11 07:52:08;;;;;;;16.87;4.63;;;;;;;-150.27;100.00;61272.81;5069456;29;20044;-71
2023/04/11 07:54:40;;;;;;;14.23;4.03;;;;;;;-150.27;100.00;61272.81;5072937;29;20025;-72
2023/04/11 07:57:11;;;;;;;13.13;3.90;;;;;;;-150.27;100.00;61272.81;5044882;29;20489;-73
2023/04/11 07:59:42;;;;;;;13.33;3.60;;;;;;;-150.27;100.00;61272.81;5069507;29;20025;-72
2023/04/11 08:02:14;;;;;;;18.77;4.83;;;;;;;-150.27;100.00;61272.81;5066825;29;20061;-73
2023/04/11 08:04:45;;;;;;;15.30;4.03;;;;;;;-150.27;100.00;61272.81;5056975;29;20050;-73
2023/04/11 08:07:16;;;;;;;14.03;3.50;;;;;;;-150.27;100.00;61272.81;5073121;29;20041;-72
2023/04/11 08:09:48;;;;;;;12.57;3.07;;;;;;;-150.27;100.00;61272.81;5070220;29;20548;-73
2023/04/11 08:12:19;;;;;;;16.53;3.57;;;;;;;-150.27;100.00;61272.81;5061077;29;20037;-75
2023/04/11 08:14:50;;;;;;;11.07;2.90;;;;;;;-150.27;100.00;61272.81;5072312;29;20095;-74
2023/04/11 08:17:24;;;;;;;21.63;3.87;;;;;;;-150.27;100.00;61272.81;5074285;29;20104;-74
2023/04/11 08:19:56;;;;;;;14.98;3.70;;;;;;;-150.27;100.00;61272.81;5075158;29;20100;-72
2023/04/11 08:22:27;;;;;;;15.83;3.13;;;;;;;-150.27;100.00;61272.81;5074332;29;20044;-73
2023/04/11 08:24:59;;;;;;;13.93;3.53;;;;;;;-150.27;100.00;61272.81;5056362;29;20025;-73
2023/04/11 08:27:30;;;;;;;8.77;2.80;;;;;;;-150.27;100.00;61272.81;5076427;29;20033;-73
2023/04/11 08:30:03;;;;;;;11.20;3.37;;;;;;;-150.27;100.00;61272.81;5078260;29;20048;-73
2023/04/11 08:32:34;;;;;;;7.13;2.40;;;;;;;-150.27;100.00;61272.81;5078115;29;20033;-73
2023/04/11 08:35:06;;;;;;;15.13;2.53;;;;;;;-150.27;100.00;61272.81;5077932;29;20040;-72
2023/04/11 08:37:37;;;;;;;10.60;2.87;;;;;;;-150.27;100.00;61272.81;5073984;29;20116;-73
2023/04/11 08:40:10;;;;;;;8.70;2.00;;;;;;;-150.27;100.00;61272.81;5077359;29;20085;-73
2023/04/11 08:42:42;;;;;;;9.03;3.17;;;;;;;-150.27;100.00;61272.81;5077915;29;20028;-73
2023/04/11 08:45:13;;;;;;;12.70;2.53;;;;;;;-150.27;100.00;61272.81;5077752;29;20476;-73
2023/04/11 08:47:44;;;;;;;10.57;2.63;;;;;;;-150.27;100.00;61272.81;5077908;29;20166;-73
2023/04/11 08:50:16;;;;;;;13.37;2.80;;;;;;;-150.27;100.00;61272.81;5069162;29;20033;-73
2023/04/11 08:52:48;;;;;;;7.00;2.27;;;;;;;-150.27;100.00;61272.81;5073338;29;20053;-73
2023/04/11 08:55:19;;;;;;;8.97;2.93;;;;;;;-150.27;100.00;61272.81;5064230;29;20485;-73
2023/04/11 08:57:52;;;;;;;15.93;6.07;;;;;;;-150.27;100.00;61272.81;5077868;29;20037;-73
2023/04/11 09:00:27;;;;;;;10.10;3.07;;;;;;;-150.27;100.00;61272.81;5074840;29;20040;-72
2023/04/11 09:03:01;;;;;;;6.77;2.03;;;;;;;-150.27;100.00;61272.81;5085600;29;20041;-73
2023/04/11 09:05:35;;;;;;;11.30;4.03;;;;;;;-150.27;100.00;61272.81;5080686;29;20080;-73
2023/04/11 09:08:11;;;;;;;8.13;2.42;;;;;;;-150.27;100.00;61272.81;5078112;29;20033;-73
2023/04/11 09:10:44;;;;;;;10.53;2.53;;;;;;;-150.27;100.00;61272.81;5074740;29;20025;-73
2023/04/11 09:13:26;;;;;;;9.97;2.97;;;;;;;-150.27;100.00;61272.81;5074548;29;20511;-73
2023/04/11 09:16:08;;;;;;;8.70;2.60;;;;;;;-150.27;100.00;61272.81;5063346;29;20033;-73
2023/04/11 09:18:42;;;;;;;8.67;2.40;;;;;;;-150.27;100.00;61272.81;5055092;29;20037;-73
2023/04/11 09:21:15;;;;;;;7.05;2.53;;;;;;;-150.27;100.00;61272.81;5062528;29;20037;-73
2023/04/11 09:23:46;;;;;;;11.33;2.80;;;;;;;-150.27;100.00;61272.81;5071168;29;20037;-73
2023/04/11 09:26:26;;;;;;;8.33;2.20;;;;;;;-150.27;100.00;61272.81;5077961;29;20100;-74
2023/04/11 09:28:57;;;;;;;11.70;2.40;;;;;;;-150.27;100.00;61272.81;5077510;29;20033;-74
2023/04/11 09:31:41;;;;;;;9.00;2.43;;;;;;;-150.27;100.00;61272.81;5073570;29;20037;-74
2023/04/11 09:34:22;;;;;;;10.00;3.17;;;;;;;-150.27;100.00;61272.81;5072823;29;20116;-74
2023/04/11 09:36:54;;;;;;;11.85;2.70;;;;;;;-150.27;100.00;61272.81;5077435;29;20040;-74
2023/04/11 09:39:28;;;;;;;9.90;2.47;;;;;;;-150.27;100.00;61272.81;5065946;29;20041;-74
2023/04/11 09:42:01;;;;;;;8.57;2.65;;;;;;;-150.27;100.00;61272.81;5071375;29;20029;-74
2023/04/11 09:44:35;;;;;;;9.02;1.92;;;;;;;-150.27;100.00;61272.81;5072050;29;20025;-74
2023/04/11 09:47:08;;;;;;;9.55;2.50;;;;;;;-150.27;100.00;61272.81;5060930;29;20493;-73
2023/04/11 09:49:39;;;;;;;6.47;2.00;;;;;;;-150.27;100.00;61272.81;5071202;29;20477;-73
2023/04/11 09:52:11;;;;;;;10.98;2.67;;;;;;;-150.27;100.00;61272.81;5069641;29;20086;-74
2023/04/11 09:54:44;;;;;;;7.25;2.08;;;;;;;-150.27;100.00;61272.81;5053158;29;20043;-73
2023/04/11 09:57:18;;;;;;;7.22;2.22;;;;;;;-150.27;100.00;61272.81;5053917;29;20105;-73
2023/04/11 09:59:51;;;;;;;;;;;;;;;-150.27;100.00;61272.81;5070566;29;20041;-73
2023/04/11 10:02:22;;;;;;;9.77;2.25;;;;;;;-150.27;100.00;61272.81;5076387;29;19951;-73
2023/04/11 10:04:54;;;;;;;10.70;2.67;;;;;;;-150.27;100.00;61272.81;5076098;29;20111;-71
2023/04/11 10:07:28;;;;;;;7.75;1.90;;;;;;;-150.27;100.00;61272.81;5076222;29;20037;-71
2023/04/11 10:10:00;;;;;;;7.03;2.67;;;;;;;-150.27;100.00;61272.81;5075161;29;20033;-72
2023/04/11 10:12:32;;;;;;;6.22;1.65;;;;;;;-150.27;100.00;61272.81;5053311;29;20033;-72
2023/04/11 10:15:07;;;;;;;5.75;1.88;;;;;;;-150.27;100.00;61272.81;5075701;29;20033;-72
2023/04/11 10:17:39;;;;;;;7.32;1.95;;;;;;;-150.27;100.00;61272.81;5076082;29;20543;-71
2023/04/11 10:20:43;;;;;;;6.00;2.08;;;;;;;-150.27;100.00;61272.81;5076153;29;20068;-72
2023/04/11 10:23:15;;;;;;;6.97;2.33;;;;;;;-150.27;100.00;61272.81;5073479;29;20096;-78
2023/04/11 10:25:54;;;;;;;6.15;1.85;;;;;;;-150.27;100.00;61272.81;5074713;29;20037;-78
2023/04/11 10:28:37;;;;;;;7.47;2.00;;;;;;;-150.27;100.00;61272.81;5073296;29;20029;-78
2023/04/11 10:31:12;;;;;;;5.65;1.60;;;;;;;-150.27;100.00;61272.81;5074989;29;20468;-75
2023/04/11 10:34:12;;;;;;;7.97;2.20;;;;;;;-150.27;100.00;61272.81;5075085;29;20088;-76
2023/04/11 10:37:04;;;;;;;12.10;2.42;;;;;;;-150.27;100.00;61272.81;5068627;29;20127;-74
2023/04/11 10:39:56;;;;;;;7.28;1.80;;;;;;;-150.27;100.00;61272.81;5069439;29;20037;-75
2023/04/11 10:42:30;;;;;;;8.52;2.05;;;;;;;-150.27;100.00;61272.81;5073704;29;20527;-75
2023/04/11 10:45:20;;;;;;;;;;;;;;;-150.27;100.00;61272.81;5070142;29;20057;-76
2023/04/11 10:48:04;;;;;;;5.65;2.00;;;;;;;-150.27;100.00;61272.81;5074781;29;19985;-73
2023/04/11 10:50:41;;;;;;;6.75;1.75;;;;;;;-150.27;100.00;61272.81;5072917;29;20025;-76
2023/04/11 10:53:33;;;;;;;6.13;1.90;;;;;;;-150.27;100.00;61272.81;5061336;29;20486;-78
2023/04/11 10:56:04;;;;;;;8.35;2.22;;;;;;;-150.27;100.00;61272.81;5076192;29;20085;-77
2023/04/11 10:58:38;;;;;;;5.07;1.42;;;;;;;-150.27;100.00;61272.81;5071579;29;20441;-76
2023/04/11 11:01:13;;;;;;;;;;;;;;;-150.27;100.00;61272.81;5076864;29;20025;-74
2023/04/11 11:03:52;;;;;;;7.10;1.90;;;;;;;-150.27;100.00;61272.81;5064633;29;19920;-77
2023/04/11 11:06:24;;;;;;;9.52;2.58;;;;;;;-150.27;100.00;61272.81;5075616;29;20071;-79
2023/04/11 11:08:56;;;;;;;7.90;2.05;;;;;;;-150.27;100.00;61272.81;5074871;29;20073;-81
2023/04/11 11:11:28;;;;;;;6.47;2.38;;;;;;;-150.27;100.00;61272.81;5074654;29;20484;-78
2023/04/11 11:13:59;;;;;;;7.45;2.13;;;;;;;-150.27;100.00;61272.81;5076149;29;20036;-80
2023/04/11 11:16:31;;;;;;;6.93;2.15;;;;;;;-150.27;100.00;61272.81;5077185;29;20057;-80
2023/04/11 11:19:05;;;;;;;5.07;1.98;;;;;;;-150.27;100.00;61272.81;5076266;29;20025;-78
2023/04/11 11:21:36;;;;;;;;;;;;;;;-150.27;100.00;61272.81;5076385;29;20025;-78
2023/04/11 11:24:07;;;;;;;6.13;1.85;;;;;;;-150.27;100.00;61272.81;5075231;29;19920;-78
2023/04/11 11:26:39;;;;;;;7.30;2.28;;;;;;;-150.27;100.00;61272.81;5069848;29;20033;-78
2023/04/11 11:29:11;;;;;;;6.72;2.15;;;;;;;-150.27;100.00;61272.81;5070377;29;20038;-78
2023/04/11 11:31:47;;;;;;;15.23;1.65;;;;;;;-150.27;100.00;61272.81;5075675;29;21089;-78